Time,TemperatureF,DewpointF,PressureIn,WindDirection,WindDirectionDegrees,WindSpeedMPH,WindSpeedGustMPH,Humidity,HourlyPrecipIn,Conditions,Clouds,dailyrainin,SoftwareType,DateUTC
2013-07-20 00:00:00,80.1,42.0,29.80,SSE,158,0.0,6.0,27,0.00,,---,0.00,VWS V13.01,2013-07-20 07:00:00,
2013-07-20 00:30:00,78.8,41.3,29.78,South,180,1.0,4.0,27,0.00,,---,0.00,VWS V13.01,2013-07-20 07:30:00,
2013-07-20 01:00:00,76.3,39.9,29.79,South,180,2.0,4.0,27,0.00,,---,0.00,VWS V13.01,2013-07-20 08:00:00,
2013-07-20 01:30:00,74.3,38.2,29.78,East,101,0.0,5.0,27,0.00,,---,0.00,VWS V13.01,2013-07-20 08:30:00,
2013-07-20 02:00:00,73.9,38.8,29.78,East,101,0.0,3.0,28,0.00,,---,0.00,VWS V13.01,2013-07-20 09:00:00,
2013-07-20 02:30:00,73.9,37.8,29.78,East,94,0.0,4.0,27,0.00,,---,0.00,VWS V13.01,2013-07-20 09:30:00,
2013-07-20 03:00:00,73.3,39.2,29.79,East,89,0.0,4.0,29,0.00,,---,0.00,VWS V13.01,2013-07-20 10:00:00,
2013-07-20 03:30:00,71.7,40.3,29.80,NE,47,2.0,5.0,32,0.00,,---,0.00,VWS V13.01,2013-07-20 10:30:00,
2013-07-20 04:00:00,71.2,41.4,29.78,NE,47,2.0,3.0,34,0.00,,---,0.00,VWS V13.01,2013-07-20 11:00:00,
2013-07-20 04:30:00,73.1,41.5,29.78,West,275,0.0,5.0,32,0.00,,---,0.00,VWS V13.01,2013-07-20 11:30:00,
2013-07-20 05:00:00,75.2,39.9,29.76,West,276,1.0,7.0,28,0.00,,---,0.00,VWS V13.01,2013-07-20 12:00:00,
2013-07-20 05:30:00,77.7,41.1,29.74,NW,312,0.0,10.0,27,0.00,,---,0.00,VWS V13.01,2013-07-20 12:30:00,
2013-07-20 06:00:00,77.9,41.3,29.74,WSW,252,0.0,0.0,27,0.00,,---,0.00,VWS V13.01,2013-07-20 13:00:00,
2013-07-20 06:30:00,78.3,41.6,29.75,SSE,155,0.0,0.0,27,0.00,,---,0.00,VWS V13.01,2013-07-20 13:30:00,
2013-07-20 07:00:00,74.9,39.6,29.77,NE,45,0.0,0.0,28,0.00,,---,0.00,VWS V13.01,2013-07-20 14:00:00,
2013-07-20 07:29:00,75.6,40.2,29.79,NE,45,0.0,0.0,28,0.00,,---,0.00,VWS V13.01,2013-07-20 14:29:00,
2013-07-20 08:00:00,79.0,42.2,29.80,NE,45,0.0,0.0,27,0.00,,---,0.00,VWS V13.01,2013-07-20 15:00:00,
2013-07-20 08:30:00,83.7,43.1,29.79,NE,45,0.0,0.0,24,0.00,,---,0.00,VWS V13.01,2013-07-20 15:30:00,
2013-07-20 09:00:00,87.6,42.9,29.79,SSW,195,3.0,7.0,21,0.00,,---,0.00,VWS V13.01,2013-07-20 16:00:00,
2013-07-20 09:30:00,89.3,44.3,29.79,SE,124,0.0,10.0,21,0.00,,---,0.00,VWS V13.01,2013-07-20 16:30:00,
2013-07-20 10:00:00,91.4,44.7,29.80,SSE,153,0.0,0.0,20,0.00,,---,0.00,VWS V13.01,2013-07-20 17:00:00,
2013-07-20 10:30:00,92.9,41.7,29.80,ESE,119,0.0,0.0,17,0.00,,---,0.00,VWS V13.01,2013-07-20 17:30:00,
2013-07-20 11:00:00,94.4,41.3,29.79,SE,139,0.0,0.0,16,0.00,,---,0.00,VWS V13.01,2013-07-20 18:00:00,
2013-07-20 11:30:00,96.5,41.3,29.78,WSW,248,0.0,0.0,15,0.00,,---,0.00,VWS V13.01,2013-07-20 18:30:00,
2013-07-20 12:00:00,97.6,42.2,29.78,South,173,0.0,0.0,15,0.00,,---,0.00,VWS V13.01,2013-07-20 19:00:00,
2013-07-20 13:00:00,99.6,43.8,29.77,ESE,121,0.0,0.0,15,0.00,,---,0.00,VWS V13.01,2013-07-20 20:00:00,
2013-07-20 13:30:00,99.1,43.4,29.75,SW,229,0.0,0.0,15,0.00,,---,0.00,VWS V13.01,2013-07-20 20:30:00,
2013-07-20 15:00:00,98.9,53.5,29.74,South,173,14.0,20.0,22,0.00,,---,0.00,VWS V13.01,2013-07-20 22:00:00,
2013-07-20 15:30:00,97.2,54.4,29.74,WSW,249,0.0,23.0,25,0.00,,---,0.00,VWS V13.01,2013-07-20 22:30:00,
2013-07-20 16:00:00,95.3,55.0,29.74,SSW,200,0.0,0.0,26,0.00,,---,0.00,VWS V13.01,2013-07-20 23:00:00,
2013-07-20 16:30:00,94.4,55.3,29.73,SSW,203,0.0,0.0,27,0.00,,---,0.00,VWS V13.01,2013-07-20 23:30:00,
2013-07-20 17:00:00,92.9,56.0,29.73,South,171,0.0,0.0,29,0.00,,---,0.00,VWS V13.01,2013-07-21 00:00:00,
2013-07-20 17:30:00,93.1,56.2,29.72,SSE,160,0.0,0.0,29,0.00,,---,0.00,VWS V13.01,2013-07-21 00:30:00,
2013-07-20 18:01:00,91.1,58.0,29.71,SSE,148,0.0,0.0,33,0.00,,---,0.00,VWS V13.01,2013-07-21 01:01:00,
2013-07-20 18:30:00,89.8,57.7,29.71,SSE,167,0.0,0.0,34,0.00,,---,0.00,VWS V13.01,2013-07-21 01:30:00,
2013-07-20 19:00:00,89.4,56.5,29.71,SSE,158,0.0,0.0,33,0.00,,---,0.00,VWS V13.01,2013-07-21 02:00:00,
2013-07-20 19:30:00,89.2,53.8,29.72,South,172,0.0,0.0,31,0.00,,---,0.00,VWS V13.01,2013-07-21 02:30:00,
2013-07-20 20:00:00,88.8,55.2,29.72,SSE,166,0.0,0.0,32,0.00,,---,0.00,VWS V13.01,2013-07-21 03:00:00,
2013-07-20 21:00:00,84.9,56.5,29.73,South,170,0.0,0.0,38,0.00,,---,0.00,VWS V13.01,2013-07-21 04:00:00,
2013-07-20 21:30:00,83.3,57.8,29.75,SE,125,0.0,0.0,42,0.00,,---,0.00,VWS V13.01,2013-07-21 04:30:00,
2013-07-20 22:01:00,82.0,58.6,29.74,SSE,166,0.0,0.0,45,0.00,,---,0.00,VWS V13.01,2013-07-21 05:01:00,
2013-07-20 22:30:00,81.6,57.6,29.75,South,182,0.0,0.0,44,0.00,,---,0.00,VWS V13.01,2013-07-21 05:30:00,
2013-07-20 23:00:00,81.8,55.8,29.75,South,182,0.0,0.0,41,0.00,,---,0.00,VWS V13.01,2013-07-21 06:00:00,
2013-07-20 23:30:00,81.8,54.5,29.75,SSE,168,0.0,0.0,39,0.00,,---,0.00,VWS V13.01,2013-07-21 06:30:00,